sensor_id;sensor_type;location;lat;lon;timestamp;pressure;altitude;pressure_sealevel;temperature;humidity
40596;BME280;26304;48.794;9.820;2024-01-30T00:02:13;97599.47;;;15.82;48.95
40596;BME280;26304;48.794;9.820;2024-01-30T00:04:35;97594.66;;;15.84;48.81
40596;BME280;26304;48.794;9.820;2024-01-30T00:06:59;97593.47;;;15.82;48.73
40596;BME280;26304;48.794;9.820;2024-01-30T00:09:22;97600.22;;;15.83;48.78
40596;BME280;26304;48.794;9.820;2024-01-30T00:11:44;97590.84;;;15.82;49.00
40596;BME280;26304;48.794;9.820;2024-01-30T00:14:07;97598.25;;;15.79;48.74
40596;BME280;26304;48.794;9.820;2024-01-30T00:16:29;97597.03;;;15.77;48.84
40596;BME280;26304;48.794;9.820;2024-01-30T00:18:52;97595.47;;;15.76;48.98
40596;BME280;26304;48.794;9.820;2024-01-30T00:21:15;97602.91;;;15.74;49.35
40596;BME280;26304;48.794;9.820;2024-01-30T00:23:38;97605.06;;;15.72;49.43
40596;BME280;26304;48.794;9.820;2024-01-30T00:26:01;97600.28;;;15.74;48.98
40596;BME280;26304;48.794;9.820;2024-01-30T00:28:24;97603.53;;;15.71;49.23
40596;BME280;26304;48.794;9.820;2024-01-30T00:30:46;97608.00;;;15.70;49.02
40596;BME280;26304;48.794;9.820;2024-01-30T00:33:09;97607.22;;;15.70;49.16
40596;BME280;26304;48.794;9.820;2024-01-30T00:35:31;97604.28;;;15.71;48.63
40596;BME280;26304;48.794;9.820;2024-01-30T00:37:54;97605.06;;;15.72;48.61
40596;BME280;26304;48.794;9.820;2024-01-30T00:40:18;97605.06;;;15.72;49.32
40596;BME280;26304;48.794;9.820;2024-01-30T00:42:39;97602.78;;;15.70;48.71
40596;BME280;26304;48.794;9.820;2024-01-30T00:45:02;97605.72;;;15.69;49.37
40596;BME280;26304;48.794;9.820;2024-01-30T00:47:25;97598.94;;;15.68;49.12
40596;BME280;26304;48.794;9.820;2024-01-30T00:49:47;97606.34;;;15.66;48.93
40596;BME280;26304;48.794;9.820;2024-01-30T00:52:10;97606.34;;;15.66;49.24
40596;BME280;26304;48.794;9.820;2024-01-30T00:54:33;97606.66;;;15.64;49.39
40596;BME280;26304;48.794;9.820;2024-01-30T00:56:57;97601.75;;;15.62;49.49
40596;BME280;26304;48.794;9.820;2024-01-30T00:59:20;97596.50;;;15.62;49.30
40596;BME280;26304;48.794;9.820;2024-01-30T01:01:43;97600.19;;;15.61;49.10
40596;BME280;26304;48.794;9.820;2024-01-30T01:04:05;97601.75;;;15.62;48.90
40596;BME280;26304;48.794;9.820;2024-01-30T01:06:28;97594.97;;;15.61;49.14
40596;BME280;26304;48.794;9.820;2024-01-30T01:08:51;97591.91;;;15.59;49.15
40596;BME280;26304;48.794;9.820;2024-01-30T01:11:13;97604.25;;;15.59;48.79
40596;BME280;26304;48.794;9.820;2024-01-30T01:13:37;97600.84;;;15.58;49.44
40596;BME280;26304;48.794;9.820;2024-01-30T01:16:00;97605.31;;;15.58;49.24
40596;BME280;26304;48.794;9.820;2024-01-30T01:18:22;97600.09;;;15.58;49.08
40596;BME280;26304;48.794;9.820;2024-01-30T01:20:45;97602.69;;;15.58;48.92
40596;BME280;26304;48.794;9.820;2024-01-30T01:23:07;97610.56;;;15.58;49.25
40596;BME280;26304;48.794;9.820;2024-01-30T01:25:29;97606.88;;;15.59;48.84
40596;BME280;26304;48.794;9.820;2024-01-30T01:27:52;97604.88;;;15.56;49.49
40596;BME280;26304;48.794;9.820;2024-01-30T01:30:16;97606.72;;;15.55;49.04
40596;BME280;26304;48.794;9.820;2024-01-30T01:32:42;97611.19;;;15.55;49.24
40596;BME280;26304;48.794;9.820;2024-01-30T01:35:11;97609.66;;;15.54;48.81
40596;BME280;26304;48.794;9.820;2024-01-30T01:37:34;97611.53;;;15.53;49.33
40596;BME280;26304;48.794;9.820;2024-01-30T01:39:56;97611.84;;;15.52;49.18
40596;BME280;26304;48.794;9.820;2024-01-30T01:42:19;97613.69;;;15.51;48.97
40596;BME280;26304;48.794;9.820;2024-01-30T01:44:41;97620.00;;;15.50;49.25
40596;BME280;26304;48.794;9.820;2024-01-30T01:47:05;97614.78;;;15.50;49.00
40596;BME280;26304;48.794;9.820;2024-01-30T01:49:28;97621.44;;;15.48;49.40
40596;BME280;26304;48.794;9.820;2024-01-30T01:51:51;97610.97;;;15.48;49.50
40596;BME280;26304;48.794;9.820;2024-01-30T01:54:17;97612.03;;;15.47;49.26
40596;BME280;26304;48.794;9.820;2024-01-30T01:56:41;97612.03;;;15.47;49.39
40596;BME280;26304;48.794;9.820;2024-01-30T01:59:05;97608.66;;;15.46;49.14
40596;BME280;26304;48.794;9.820;2024-01-30T02:01:29;97609.72;;;15.45;49.15
40596;BME280;26304;48.794;9.820;2024-01-30T02:03:53;97610.81;;;15.44;49.01
40596;BME280;26304;48.794;9.820;2024-01-30T02:06:16;97606.34;;;15.44;49.09
40596;BME280;26304;48.794;9.820;2024-01-30T02:08:39;97598.81;;;15.43;49.38
40596;BME280;26304;48.794;9.820;2024-01-30T02:11:01;97598.81;;;15.43;48.94
40596;BME280;26304;48.794;9.820;2024-01-30T02:13:24;97602.50;;;15.42;48.86
40596;BME280;26304;48.794;9.820;2024-01-30T02:15:49;97600.63;;;15.42;48.80
40596;BME280;26304;48.794;9.820;2024-01-30T02:18:12;97600.97;;;15.41;48.92
40596;BME280;26304;48.794;9.820;2024-01-30T02:20:37;97602.50;;;15.42;48.89
40596;BME280;26304;48.794;9.820;2024-01-30T02:23:02;97605.44;;;15.40;49.15
40596;BME280;26304;48.794;9.820;2024-01-30T02:25:31;97602.06;;;15.40;48.67
40596;BME280;26304;48.794;9.820;2024-01-30T02:27:53;97608.50;;;15.42;48.91
40596;BME280;26304;48.794;9.820;2024-01-30T02:30:16;97607.75;;;15.42;48.89
40596;BME280;26304;48.794;9.820;2024-01-30T02:32:39;97599.44;;;15.40;48.99
40596;BME280;26304;48.794;9.820;2024-01-30T02:35:01;97604.69;;;15.40;48.88
40596;BME280;26304;48.794;9.820;2024-01-30T02:37:24;97601.59;;;15.38;48.67
40596;BME280;26304;48.794;9.820;2024-01-30T02:39:48;97603.56;;;15.41;48.67
40596;BME280;26304;48.794;9.820;2024-01-30T02:42:11;97600.50;;;15.39;48.75
40596;BME280;26304;48.794;9.820;2024-01-30T02:44:33;97607.94;;;15.37;48.75
40596;BME280;26304;48.794;9.820;2024-01-30T02:46:56;97607.16;;;15.36;48.68
40596;BME280;26304;48.794;9.820;2024-01-30T02:49:19;97603.78;;;15.36;49.31
40596;BME280;26304;48.794;9.820;2024-01-30T02:51:41;97603.31;;;15.34;48.70
40596;BME280;26304;48.794;9.820;2024-01-30T02:54:04;97600.72;;;15.34;49.28
40596;BME280;26304;48.794;9.820;2024-01-30T02:56:28;97602.22;;;15.35;48.61
40596;BME280;26304;48.794;9.820;2024-01-30T02:58:50;97598.41;;;15.32;48.65
40596;BME280;26304;48.794;9.820;2024-01-30T03:01:13;97600.25;;;15.32;49.00
40596;BME280;26304;48.794;9.820;2024-01-30T03:03:36;97592.72;;;15.30;49.33
40596;BME280;26304;48.794;9.820;2024-01-30T03:05:57;97599.78;;;15.30;49.29
40596;BME280;26304;48.794;9.820;2024-01-30T03:08:20;97596.72;;;15.28;49.30
40596;BME280;26304;48.794;9.820;2024-01-30T03:10:43;97596.72;;;15.28;49.47
40596;BME280;26304;48.794;9.820;2024-01-30T03:13:07;97594.88;;;15.28;49.37
40596;BME280;26304;48.794;9.820;2024-01-30T03:15:29;97593.66;;;15.25;48.97
40596;BME280;26304;48.794;9.820;2024-01-30T03:17:53;97595.19;;;15.26;49.00
40596;BME280;26304;48.794;9.820;2024-01-30T03:20:15;97595.97;;;15.27;49.00
40596;BME280;26304;48.794;9.820;2024-01-30T03:22:38;97600.44;;;15.26;49.04
40596;BME280;26304;48.794;9.820;2024-01-30T03:25:00;97598.91;;;15.25;48.88
40596;BME280;26304;48.794;9.820;2024-01-30T03:27:23;97594.75;;;15.24;49.53
40596;BME280;26304;48.794;9.820;2024-01-30T03:29:47;97595.50;;;15.25;49.42
40596;BME280;26304;48.794;9.820;2024-01-30T03:32:09;97595.81;;;15.23;49.64
40596;BME280;26304;48.794;9.820;2024-01-30T03:34:31;97595.06;;;15.23;49.13
40596;BME280;26304;48.794;9.820;2024-01-30T03:36:54;97596.59;;;15.24;49.20
40596;BME280;26304;48.794;9.820;2024-01-30T03:39:16;97597.38;;;15.24;49.25
40596;BME280;26304;48.794;9.820;2024-01-30T03:41:42;97594.31;;;15.22;49.06
40596;BME280;26304;48.794;9.820;2024-01-30T03:44:06;97595.38;;;15.21;48.89
40596;BME280;26304;48.794;9.820;2024-01-30T03:46:30;97598.75;;;15.22;49.34
40596;BME280;26304;48.794;9.820;2024-01-30T03:48:52;97594.31;;;15.22;49.03
40596;BME280;26304;48.794;9.820;2024-01-30T03:51:15;97591.22;;;15.20;49.37
40596;BME280;26304;48.794;9.820;2024-01-30T03:53:37;97593.06;;;15.20;49.26
40596;BME280;26304;48.794;9.820;2024-01-30T03:56:00;97600.63;;;15.21;49.15
40596;BME280;26304;48.794;9.820;2024-01-30T03:58:23;97602.34;;;15.17;49.18
40596;BME280;26304;48.794;9.820;2024-01-30T04:00:45;97596.00;;;15.18;48.92
40596;BME280;26304;48.794;9.820;2024-01-30T04:03:09;97604.97;;;15.17;49.40
40596;BME280;26304;48.794;9.820;2024-01-30T04:05:32;97601.25;;;15.18;49.34
40596;BME280;26304;48.794;9.820;2024-01-30T04:07:55;97605.28;;;15.16;49.53
40596;BME280;26304;48.794;9.820;2024-01-30T04:10:17;97604.50;;;15.15;49.04
40596;BME280;26304;48.794;9.820;2024-01-30T04:12:40;97609.75;;;15.15;48.98
40596;BME280;26304;48.794;9.820;2024-01-30T04:15:04;97610.84;;;15.14;49.52
40596;BME280;26304;48.794;9.820;2024-01-30T04:17:26;97607.00;;;15.12;49.05
40596;BME280;26304;48.794;9.820;2024-01-30T04:19:51;97615.59;;;15.12;49.02
40596;BME280;26304;48.794;9.820;2024-01-30T04:22:14;97612.53;;;15.10;49.40
40596;BME280;26304;48.794;9.820;2024-01-30T04:24:36;97610.38;;;15.12;49.21
40596;BME280;26304;48.794;9.820;2024-01-30T04:26:59;97610.38;;;15.12;49.29
40596;BME280;26304;48.794;9.820;2024-01-30T04:29:21;97610.38;;;15.12;49.55
40596;BME280;26304;48.794;9.820;2024-01-30T04:31:44;97607.75;;;15.12;49.62
40596;BME280;26304;48.794;9.820;2024-01-30T04:34:07;97613.63;;;15.09;49.00
40596;BME280;26304;48.794;9.820;2024-01-30T04:36:31;97610.38;;;15.12;49.62
40596;BME280;26304;48.794;9.820;2024-01-30T04:38:53;97619.31;;;15.11;49.45
40596;BME280;26304;48.794;9.820;2024-01-30T04:41:16;97617.03;;;15.10;49.48
40596;BME280;26304;48.794;9.820;2024-01-30T04:43:38;97611.00;;;15.09;48.95
40596;BME280;26304;48.794;9.820;2024-01-30T04:46:01;97614.56;;;15.04;49.25
40596;BME280;26304;48.794;9.820;2024-01-30T04:48:24;97613.50;;;15.05;49.03
40596;BME280;26304;48.794;9.820;2024-01-30T04:50:46;97613.81;;;15.04;49.61
40596;BME280;26304;48.794;9.820;2024-01-30T04:53:10;97611.19;;;15.04;49.01
40596;BME280;26304;48.794;9.820;2024-01-30T04:55:33;97603.63;;;15.02;49.71
40596;BME280;26304;48.794;9.820;2024-01-30T04:57:55;97614.28;;;14.97;49.97
40596;BME280;26304;48.794;9.820;2024-01-30T05:00:18;97616.63;;;14.90;49.74
40596;BME280;26304;48.794;9.820;2024-01-30T05:02:41;97612.16;;;15.20;49.44
40596;BME280;26304;48.794;9.820;2024-01-30T05:05:04;97612.78;;;15.77;48.05
40596;BME280;26304;48.794;9.820;2024-01-30T05:07:27;97613.19;;;16.33;47.16
40596;BME280;26304;48.794;9.820;2024-01-30T05:09:50;97607.25;;;16.82;45.93
40596;BME280;26304;48.794;9.820;2024-01-30T05:12:13;97620.53;;;17.23;45.39
40596;BME280;26304;48.794;9.820;2024-01-30T05:14:35;97615.34;;;17.51;45.11
40596;BME280;26304;48.794;9.820;2024-01-30T05:16:58;97625.03;;;17.88;44.58
40596;BME280;26304;48.794;9.820;2024-01-30T05:19:21;97625.28;;;18.11;44.06
40596;BME280;26304;48.794;9.820;2024-01-30T05:21:44;97618.94;;;18.28;43.81
40596;BME280;26304;48.794;9.820;2024-01-30T05:24:07;97616.31;;;18.44;43.75
40596;BME280;26304;48.794;9.820;2024-01-30T05:26:32;97622.63;;;18.71;43.27
40596;BME280;26304;48.794;9.820;2024-01-30T05:28:55;97619.50;;;18.81;43.31
40596;BME280;26304;48.794;9.820;2024-01-30T05:31:17;97623.78;;;18.86;43.25
40596;BME280;26304;48.794;9.820;2024-01-30T05:33:40;97621.31;;;18.93;43.12
40596;BME280;26304;48.794;9.820;2024-01-30T05:36:03;97621.56;;;19.04;42.76
40596;BME280;26304;48.794;9.820;2024-01-30T05:38:26;97628.59;;;19.16;42.78
40596;BME280;26304;48.794;9.820;2024-01-30T05:40:48;97621.44;;;19.32;42.35
40596;BME280;26304;48.794;9.820;2024-01-30T05:43:12;97631.34;;;19.39;42.11
40596;BME280;26304;48.794;9.820;2024-01-30T05:45:35;97630.06;;;19.49;41.97
40596;BME280;26304;48.794;9.820;2024-01-30T05:47:58;97626.94;;;19.63;42.01
40596;BME280;26304;48.794;9.820;2024-01-30T05:50:20;97633.41;;;19.65;41.91
40596;BME280;26304;48.794;9.820;2024-01-30T05:52:44;97627.00;;;19.82;41.81
40596;BME280;26304;48.794;9.820;2024-01-30T05:55:07;97633.88;;;19.87;41.99
40596;BME280;26304;48.794;9.820;2024-01-30T05:57:31;97632.53;;;19.96;41.94
40596;BME280;26304;48.794;9.820;2024-01-30T05:59:54;97624.13;;;20.10;42.04
40596;BME280;26304;48.794;9.820;2024-01-30T06:02:17;97625.44;;;20.20;41.92
40596;BME280;26304;48.794;9.820;2024-01-30T06:04:40;97631.19;;;20.26;41.88
40596;BME280;26304;48.794;9.820;2024-01-30T06:07:03;97621.91;;;20.36;42.04
40596;BME280;26304;48.794;9.820;2024-01-30T06:09:27;97627.75;;;20.45;41.76
40596;BME280;26304;48.794;9.820;2024-01-30T06:11:50;97631.56;;;20.47;41.66
40596;BME280;26304;48.794;9.820;2024-01-30T06:14:12;97632.47;;;20.55;41.75
40596;BME280;26304;48.794;9.820;2024-01-30T06:16:36;97632.66;;;20.66;41.35
40596;BME280;26304;48.794;9.820;2024-01-30T06:18:59;97626.00;;;20.53;41.40
40596;BME280;26304;48.794;9.820;2024-01-30T06:21:21;97630.09;;;20.70;41.42
40596;BME280;26304;48.794;9.820;2024-01-30T06:23:44;97631.31;;;20.56;41.91
40596;BME280;26304;48.794;9.820;2024-01-30T06:26:07;97623.34;;;20.53;42.04
40596;BME280;26304;48.794;9.820;2024-01-30T06:28:29;97628.81;;;19.98;42.98
40596;BME280;26304;48.794;9.820;2024-01-30T06:30:52;97630.81;;;19.49;43.93
40596;BME280;26304;48.794;9.820;2024-01-30T06:33:16;97627.13;;;19.18;44.62
40596;BME280;26304;48.794;9.820;2024-01-30T06:35:38;97628.19;;;18.98;44.90
40596;BME280;26304;48.794;9.820;2024-01-30T06:38:01;97632.03;;;18.84;45.15
40596;BME280;26304;48.794;9.820;2024-01-30T06:40:24;97632.50;;;18.74;45.05
40596;BME280;26304;48.794;9.820;2024-01-30T06:42:46;97628.84;;;18.63;45.38
40596;BME280;26304;48.794;9.820;2024-01-30T06:45:09;97627.13;;;18.55;45.46
40596;BME280;26304;48.794;9.820;2024-01-30T06:47:32;97626.94;;;18.47;45.51
40596;BME280;26304;48.794;9.820;2024-01-30T06:49:55;97634.59;;;18.37;45.96
40596;BME280;26304;48.794;9.820;2024-01-30T06:52:19;97630.22;;;18.28;45.74
40596;BME280;26304;48.794;9.820;2024-01-30T06:54:41;97641.34;;;18.22;45.73
40596;BME280;26304;48.794;9.820;2024-01-30T06:57:04;97634.34;;;18.13;45.72
40596;BME280;26304;48.794;9.820;2024-01-30T06:59:30;97638.31;;;18.07;46.23
40596;BME280;26304;48.794;9.820;2024-01-30T07:01:52;97640.78;;;18.00;46.34
40596;BME280;26304;48.794;9.820;2024-01-30T07:04:15;97639.16;;;17.95;46.34
40596;BME280;26304;48.794;9.820;2024-01-30T07:06:39;97637.94;;;17.93;46.08
40596;BME280;26304;48.794;9.820;2024-01-30T07:09:01;97645.63;;;17.86;46.27
40596;BME280;26304;48.794;9.820;2024-01-30T07:11:24;97642.88;;;17.82;46.09
40596;BME280;26304;48.794;9.820;2024-01-30T07:13:48;97647.59;;;17.76;46.16
40596;BME280;26304;48.794;9.820;2024-01-30T07:16:10;97645.66;;;17.73;46.63
40596;BME280;26304;48.794;9.820;2024-01-30T07:18:33;97651.56;;;17.70;46.06
40596;BME280;26304;48.794;9.820;2024-01-30T07:20:56;97651.47;;;17.67;46.33
40596;BME280;26304;48.794;9.820;2024-01-30T07:23:20;97644.25;;;17.64;46.55
40596;BME280;26304;48.794;9.820;2024-01-30T07:25:43;97648.63;;;17.59;46.74
40596;BME280;26304;48.794;9.820;2024-01-30T07:28:06;97657.50;;;17.55;46.64
40596;BME280;26304;48.794;9.820;2024-01-30T07:30:28;97654.03;;;17.51;46.68
40596;BME280;26304;48.794;9.820;2024-01-30T07:32:51;97656.22;;;17.49;46.92
40596;BME280;26304;48.794;9.820;2024-01-30T07:35:13;97653.47;;;17.45;46.60
40596;BME280;26304;48.794;9.820;2024-01-30T07:37:36;97660.16;;;17.42;47.10
40596;BME280;26304;48.794;9.820;2024-01-30T07:40:02;97662.34;;;17.40;47.22
40596;BME280;26304;48.794;9.820;2024-01-30T07:42:25;97661.47;;;17.36;46.88
40596;BME280;26304;48.794;9.820;2024-01-30T07:44:47;97655.34;;;17.32;47.07
40596;BME280;26304;48.794;9.820;2024-01-30T07:47:10;97654.47;;;17.28;47.31
40596;BME280;26304;48.794;9.820;2024-01-30T07:49:32;97656.66;;;17.26;47.34
40596;BME280;26304;48.794;9.820;2024-01-30T07:51:55;97669.38;;;17.24;47.48
40596;BME280;26304;48.794;9.820;2024-01-30T07:54:18;97673.06;;;17.23;46.80
40596;BME280;26304;48.794;9.820;2024-01-30T07:56:42;97671.88;;;17.20;47.42
40596;BME280;26304;48.794;9.820;2024-01-30T07:59:04;97668.38;;;17.16;47.00
40596;BME280;26304;48.794;9.820;2024-01-30T08:01:27;97670.91;;;17.13;47.28
40596;BME280;26304;48.794;9.820;2024-01-30T08:03:50;97662.25;;;17.12;47.40
40596;BME280;26304;48.794;9.820;2024-01-30T08:06:12;97665.22;;;17.11;47.33
40596;BME280;26304;48.794;9.820;2024-01-30T08:08:35;97659.06;;;17.06;47.56
40596;BME280;26304;48.794;9.820;2024-01-30T08:10:58;97669.91;;;17.05;47.91
40596;BME280;26304;48.794;9.820;2024-01-30T08:13:22;97671.34;;;17.02;47.53
40596;BME280;26304;48.794;9.820;2024-01-30T08:15:45;97673.06;;;16.98;47.71
40596;BME280;26304;48.794;9.820;2024-01-30T08:18:08;97668.47;;;16.95;47.88
40596;BME280;26304;48.794;9.820;2024-01-30T08:20:30;97675.03;;;16.89;47.63
40596;BME280;26304;48.794;9.820;2024-01-30T08:22:53;97662.63;;;16.77;48.09
40596;BME280;26304;48.794;9.820;2024-01-30T08:25:15;97666.25;;;16.85;47.37
40596;BME280;26304;48.794;9.820;2024-01-30T08:27:38;97669.41;;;16.78;47.91
40596;BME280;26304;48.794;9.820;2024-01-30T08:30:02;97664.47;;;16.77;47.23
40596;BME280;26304;48.794;9.820;2024-01-30T08:32:24;97656.47;;;16.73;47.77
40596;BME280;26304;48.794;9.820;2024-01-30T08:34:48;97661.94;;;16.68;47.65
40596;BME280;26304;48.794;9.820;2024-01-30T08:37:10;97660.72;;;16.65;47.55
40596;BME280;26304;48.794;9.820;2024-01-30T08:39:32;97662.50;;;16.61;47.96
40596;BME280;26304;48.794;9.820;2024-01-30T08:41:55;97665.13;;;16.61;47.86
40596;BME280;26304;48.794;9.820;2024-01-30T08:44:19;97666.19;;;16.60;48.39
40596;BME280;26304;48.794;9.820;2024-01-30T08:46:43;97668.06;;;16.60;48.24
40596;BME280;26304;48.794;9.820;2024-01-30T08:49:05;97660.06;;;16.56;47.54
40596;BME280;26304;48.794;9.820;2024-01-30T08:51:29;97661.47;;;16.53;47.89
40596;BME280;26304;48.794;9.820;2024-01-30T08:53:51;97666.63;;;16.50;48.07
40596;BME280;26304;48.794;9.820;2024-01-30T08:59:32;97667.81;;;16.52;48.08
40596;BME280;26304;48.794;9.820;2024-01-30T09:01:56;97665.41;;;16.47;47.78
40596;BME280;26304;48.794;9.820;2024-01-30T09:04:20;97664.31;;;16.48;47.67
40596;BME280;26304;48.794;9.820;2024-01-30T09:06:43;97660.03;;;16.44;47.57
40596;BME280;26304;48.794;9.820;2024-01-30T09:09:08;97667.91;;;16.44;48.01
40596;BME280;26304;48.794;9.820;2024-01-30T09:11:30;97661.13;;;16.43;47.94
40596;BME280;26304;48.794;9.820;2024-01-30T09:13:53;97664.19;;;16.45;47.13
40596;BME280;26304;48.794;9.820;2024-01-30T09:16:15;97665.72;;;16.46;47.36
40596;BME280;26304;48.794;9.820;2024-01-30T09:18:39;97668.34;;;16.46;47.61
40596;BME280;26304;48.794;9.820;2024-01-30T09:21:02;97670.00;;;16.50;47.06
40596;BME280;26304;48.794;9.820;2024-01-30T09:23:27;97668.03;;;16.47;47.53
40596;BME280;26304;48.794;9.820;2024-01-30T09:25:50;97673.59;;;16.46;47.08
40596;BME280;26304;48.794;9.820;2024-01-30T09:28:13;97676.22;;;16.46;47.50
40596;BME280;26304;48.794;9.820;2024-01-30T09:30:35;97668.34;;;16.46;47.31
40596;BME280;26304;48.794;9.820;2024-01-30T09:32:58;97669.44;;;16.45;46.63
40596;BME280;26304;48.794;9.820;2024-01-30T09:35:22;97669.44;;;16.45;46.78
40596;BME280;26304;48.794;9.820;2024-01-30T09:37:44;97669.00;;;16.43;47.52
40596;BME280;26304;48.794;9.820;2024-01-30T09:40:08;97676.00;;;16.51;46.66
40596;BME280;26304;48.794;9.820;2024-01-30T09:42:34;97675.25;;;16.50;47.21
40596;BME280;26304;48.794;9.820;2024-01-30T09:44:57;97678.78;;;16.55;47.22
40596;BME280;26304;48.794;9.820;2024-01-30T09:47:20;97681.72;;;16.53;47.12
40596;BME280;26304;48.794;9.820;2024-01-30T09:49:43;97689.59;;;16.53;46.95
40596;BME280;26304;48.794;9.820;2024-01-30T09:52:07;97682.03;;;16.51;46.79
40596;BME280;26304;48.794;9.820;2024-01-30T09:54:31;97678.19;;;16.49;46.98
40596;BME280;26304;48.794;9.820;2024-01-30T09:56:53;97675.56;;;16.49;46.86
40596;BME280;26304;48.794;9.820;2024-01-30T09:59:16;97680.06;;;16.48;46.85
40596;BME280;26304;48.794;9.820;2024-01-30T10:01:39;97683.88;;;16.51;47.07
40596;BME280;26304;48.794;9.820;2024-01-30T10:04:02;97684.09;;;16.46;47.04
40596;BME280;26304;48.794;9.820;2024-01-30T10:06:26;97685.63;;;16.47;46.92
40596;BME280;26304;48.794;9.820;2024-01-30T10:08:50;97675.47;;;16.45;47.01
40596;BME280;26304;48.794;9.820;2024-01-30T10:11:12;97675.91;;;16.47;46.62
40596;BME280;26304;48.794;9.820;2024-01-30T10:13:35;97678.84;;;16.46;46.75
40596;BME280;26304;48.794;9.820;2024-01-30T10:15:58;97676.53;;;16.44;46.12
40596;BME280;26304;48.794;9.820;2024-01-30T10:18:22;97669.88;;;16.47;46.83
40596;BME280;26304;48.794;9.820;2024-01-30T10:20:45;97669.88;;;16.47;46.44
40596;BME280;26304;48.794;9.820;2024-01-30T10:23:08;97679.09;;;16.53;45.99
40596;BME280;26304;48.794;9.820;2024-01-30T10:25:32;97669.56;;;16.48;45.89
40596;BME280;26304;48.794;9.820;2024-01-30T10:27:55;97668.22;;;16.42;45.95
40596;BME280;26304;48.794;9.820;2024-01-30T10:30:18;97665.94;;;16.41;45.41
40596;BME280;26304;48.794;9.820;2024-01-30T10:32:40;97669.00;;;16.43;45.55
40596;BME280;26304;48.794;9.820;2024-01-30T10:35:03;97669.63;;;16.40;45.27
40596;BME280;26304;48.794;9.820;2024-01-30T10:37:26;97674.25;;;16.43;45.77
40596;BME280;26304;48.794;9.820;2024-01-30T10:39:53;97668.88;;;16.39;45.72
40596;BME280;26304;48.794;9.820;2024-01-30T10:42:18;97676.09;;;16.42;45.80
40596;BME280;26304;48.794;9.820;2024-01-30T10:44:46;97667.59;;;16.45;45.28
40596;BME280;26304;48.794;9.820;2024-01-30T10:47:12;97668.56;;;16.41;45.54
40596;BME280;26304;48.794;9.820;2024-01-30T10:49:36;97673.81;;;16.41;45.61
40596;BME280;26304;48.794;9.820;2024-01-30T10:51:59;97670.53;;;16.44;45.73
40596;BME280;26304;48.794;9.820;2024-01-30T10:54:23;97669.56;;;16.48;45.82
40596;BME280;26304;48.794;9.820;2024-01-30T10:56:48;97661.81;;;16.52;45.61
40596;BME280;26304;48.794;9.820;2024-01-30T10:59:13;97670.91;;;16.55;46.08
40596;BME280;26304;48.794;9.820;2024-01-30T11:01:36;97670.06;;;16.42;46.29
40596;BME280;26304;48.794;9.820;2024-01-30T11:03:59;97664.31;;;16.48;46.05
40596;BME280;26304;48.794;9.820;2024-01-30T11:06:23;97658.22;;;16.57;45.96
40596;BME280;26304;48.794;9.820;2024-01-30T11:08:46;97660.25;;;16.51;46.12
40596;BME280;26304;48.794;9.820;2024-01-30T11:11:09;97664.00;;;16.50;46.23
40596;BME280;26304;48.794;9.820;2024-01-30T11:13:32;97667.00;;;16.40;46.25
40596;BME280;26304;48.794;9.820;2024-01-30T11:16:00;97659.25;;;16.43;45.75
40596;BME280;26304;48.794;9.820;2024-01-30T11:18:23;97653.25;;;16.43;45.16
40596;BME280;26304;48.794;9.820;2024-01-30T11:20:46;97657.84;;;16.46;45.52
40596;BME280;26304;48.794;9.820;2024-01-30T11:23:11;97658.91;;;16.32;45.94
40596;BME280;26304;48.794;9.820;2024-01-30T11:25:34;97655.06;;;16.30;45.39
40596;BME280;26304;48.794;9.820;2024-01-30T11:27:58;97656.72;;;16.34;45.60
40596;BME280;26304;48.794;9.820;2024-01-30T11:30:21;97649.06;;;16.42;45.83
40596;BME280;26304;48.794;9.820;2024-01-30T11:32:45;97652.13;;;16.31;45.79
40596;BME280;26304;48.794;9.820;2024-01-30T11:35:08;97644.81;;;16.37;45.57
40596;BME280;26304;48.794;9.820;2024-01-30T11:37:36;97643.59;;;16.34;45.77
40596;BME280;26304;48.794;9.820;2024-01-30T11:40:00;97640.97;;;16.34;45.71
40596;BME280;26304;48.794;9.820;2024-01-30T11:42:26;97640.22;;;16.34;46.13
40596;BME280;26304;48.794;9.820;2024-01-30T11:44:49;97634.50;;;16.32;46.31
40596;BME280;26304;48.794;9.820;2024-01-30T11:47:12;97637.44;;;16.30;46.36
40596;BME280;26304;48.794;9.820;2024-01-30T11:49:36;97640.97;;;16.34;45.68
40596;BME280;26304;48.794;9.820;2024-01-30T11:51:58;97637.13;;;16.32;46.25
40596;BME280;26304;48.794;9.820;2024-01-30T11:54:21;97633.44;;;16.33;46.09
40596;BME280;26304;48.794;9.820;2024-01-30T11:56:44;97633.44;;;16.33;46.09
40596;BME280;26304;48.794;9.820;2024-01-30T11:59:06;97629.25;;;16.32;45.82
40596;BME280;26304;48.794;9.820;2024-01-30T12:01:29;97634.19;;;16.33;45.69
40596;BME280;26304;48.794;9.820;2024-01-30T12:03:53;97636.59;;;16.26;45.44
40596;BME280;26304;48.794;9.820;2024-01-30T12:06:17;97629.56;;;16.30;45.97
40596;BME280;26304;48.794;9.820;2024-01-30T12:08:39;97633.75;;;16.31;46.10
40596;BME280;26304;48.794;9.820;2024-01-30T12:11:02;97630.22;;;16.27;45.90
40596;BME280;26304;48.794;9.820;2024-01-30T12:13:26;97629.91;;;16.29;46.11
40596;BME280;26304;48.794;9.820;2024-01-30T12:15:50;97628.06;;;16.29;45.88
40596;BME280;26304;48.794;9.820;2024-01-30T12:18:12;97629.47;;;16.27;45.80
40596;BME280;26304;48.794;9.820;2024-01-30T12:20:35;97622.88;;;16.21;45.86
40596;BME280;26304;48.794;9.820;2024-01-30T12:22:59;97621.03;;;16.21;45.81
40596;BME280;26304;48.794;9.820;2024-01-30T12:25:22;97624.88;;;16.24;44.79
40596;BME280;26304;48.794;9.820;2024-01-30T12:27:46;97622.44;;;16.19;45.73
40596;BME280;26304;48.794;9.820;2024-01-30T12:30:12;97619.06;;;16.18;45.06
40596;BME280;26304;48.794;9.820;2024-01-30T12:32:36;97611.38;;;16.13;45.52
40596;BME280;26304;48.794;9.820;2024-01-30T12:34:58;97617.97;;;16.19;44.72
40596;BME280;26304;48.794;9.820;2024-01-30T12:37:21;97612.22;;;16.26;44.83
40596;BME280;26304;48.794;9.820;2024-01-30T12:39:47;97613.81;;;16.18;45.42
40596;BME280;26304;48.794;9.820;2024-01-30T12:42:09;97615.81;;;16.21;44.89